Time;durP1;ratioP1;P1;durP2;ratioP2;P2;SDS_P1;SDS_P2;PMS_P1;PMS_P2;Temp;Humidity;BMP_temperature;BMP_pressure;BME280_temperature;BME280_humidity;BME280_pressure;Samples;Min_cycle;Max_cycle;Signal;HPM_P1;HPM_P2
2022/11/23 00:02:24;;;;;;;14.05;9.88;;;8.20;99.90;;;;;;5003974;28;20041;-69
2022/11/23 00:04:49;;;;;;;11.82;8.07;;;8.10;99.90;;;;;;5007053;28;20053;-69
2022/11/23 00:07:15;;;;;;;14.00;9.70;;;8.20;99.90;;;;;;5013975;28;20591;-70
2022/11/23 00:09:40;;;;;;;13.27;7.70;;;8.20;99.90;;;;;;5013322;28;20046;-69
2022/11/23 00:12:06;;;;;;;12.75;6.75;;;8.20;99.90;;;;;;5013151;28;20125;-69
2022/11/23 00:14:32;;;;;;;13.13;9.43;;;8.20;99.90;;;;;;5013959;28;20044;-69
2022/11/23 00:16:57;;;;;;;14.23;9.35;;;8.20;99.90;;;;;;5013778;28;20038;-70
2022/11/23 00:19:23;;;;;;;15.82;9.32;;;8.20;99.90;;;;;;5014117;28;20129;-69
2022/11/23 00:21:48;;;;;;;13.13;9.90;;;8.20;99.90;;;;;;5012372;28;20026;-69
2022/11/23 00:24:14;;;;;;;12.27;7.60;;;8.20;99.90;;;;;;5013987;28;20034;-69
2022/11/23 00:26:39;;;;;;;14.27;8.77;;;8.20;99.90;;;;;;5013671;28;20508;-69
2022/11/23 00:29:05;;;;;;;15.80;9.63;;;8.30;99.90;;;;;;4996524;28;20050;-69
2022/11/23 00:31:31;;;;;;;13.60;9.15;;;8.30;99.90;;;;;;5013493;28;20037;-69
2022/11/23 00:33:57;;;;;;;11.82;7.40;;;8.30;99.90;;;;;;5012450;28;20049;-69
2022/11/23 00:36:24;;;;;;;13.30;8.50;;;8.30;99.90;;;;;;5013784;28;20113;-69
2022/11/23 00:38:53;;;;;;;13.57;9.32;;;8.30;99.90;;;;;;5012299;28;20038;-69
2022/11/23 00:41:21;;;;;;;8.45;5.63;;;8.20;99.90;;;;;;5010254;28;20113;-69
2022/11/23 00:43:47;;;;;;;14.68;9.77;;;8.30;99.90;;;;;;5012405;28;20149;-69
2022/11/23 00:46:18;;;;;;;14.18;8.30;;;8.30;99.90;;;;;;5012779;28;20120;-69
2022/11/23 00:48:46;;;;;;;12.20;8.07;;;8.30;99.90;;;;;;5013568;28;20398;-69
2022/11/23 00:51:14;;;;;;;10.10;6.65;;;8.20;99.90;;;;;;5012723;28;20304;-69
2022/11/23 00:53:40;;;;;;;13.63;9.38;;;8.40;99.90;;;;;;5013482;28;20041;-69
2022/11/23 00:56:06;;;;;;;15.25;10.20;;;8.30;99.90;;;;;;5012749;28;20083;-69
2022/11/23 00:58:32;;;;;;;14.45;9.38;;;8.20;99.90;;;;;;5013329;28;20457;-69
2022/11/23 01:01:06;;;;;;;13.15;9.60;;;8.20;99.90;;;;;;5012681;28;20069;-69
2022/11/23 01:03:31;;;;;;;12.88;8.30;;;8.20;99.90;;;;;;5013254;28;20056;-69
2022/11/23 01:06:05;;;;;;;13.80;8.77;;;8.30;99.90;;;;;;5012782;28;20121;-69
2022/11/23 01:08:31;;;;;;;16.38;11.15;;;8.30;99.90;;;;;;5013164;28;20033;-69
2022/11/23 01:11:08;;;;;;;13.25;9.23;;;8.20;99.90;;;;;;5012753;28;20569;-69
2022/11/23 01:13:35;;;;;;;15.27;8.90;;;8.20;99.90;;;;;;5012123;28;20045;-69
2022/11/23 01:16:00;;;;;;;11.90;8.60;;;8.20;99.90;;;;;;5012689;28;20438;-69
2022/11/23 01:18:26;;;;;;;13.45;8.93;;;8.20;99.90;;;;;;5011898;28;20129;-69
2022/11/23 01:20:52;;;;;;;15.73;8.40;;;8.20;99.90;;;;;;5012302;28;20073;-69
2022/11/23 01:23:18;;;;;;;12.73;8.88;;;8.30;99.90;;;;;;5013182;28;20479;-69
2022/11/23 01:25:43;;;;;;;15.65;8.88;;;8.20;99.90;;;;;;5011026;28;20045;-69
2022/11/23 01:28:09;;;;;;;12.77;7.80;;;8.20;99.90;;;;;;5012119;28;20038;-69
2022/11/23 01:30:35;;;;;;;13.48;8.40;;;8.30;99.90;;;;;;5011803;28;20177;-69
2022/11/23 01:33:02;;;;;;;13.20;8.95;;;8.20;99.90;;;;;;5013029;28;20041;-69
2022/11/23 01:35:27;;;;;;;14.90;9.43;;;8.20;99.90;;;;;;5013342;28;20505;-69
2022/11/23 01:37:53;;;;;;;15.32;9.68;;;8.20;99.90;;;;;;5012175;28;20177;-69
2022/11/23 01:40:19;;;;;;;13.35;8.80;;;8.20;99.90;;;;;;5011063;28;20045;-69
2022/11/23 01:42:58;;;;;;;14.57;9.20;;;8.20;99.90;;;;;;5013239;28;20042;-69
2022/11/23 01:45:40;;;;;;;8.13;5.13;;;8.20;99.90;;;;;;5013060;28;20050;-69
2022/11/23 01:48:29;;;;;;;11.80;6.18;;;8.30;99.90;;;;;;5012172;28;20041;-69
2022/11/23 01:50:57;;;;;;;13.32;8.02;;;8.50;99.90;;;;;;5016097;28;20042;-69
2022/11/23 01:53:23;;;;;;;13.50;8.50;;;8.50;99.90;;;;;;5016726;28;20049;-69
2022/11/23 01:55:50;;;;;;;11.02;8.70;;;8.40;99.90;;;;;;5015891;28;20065;-69
2022/11/23 01:58:19;;;;;;;13.85;8.57;;;8.40;99.90;;;;;;5000710;28;20113;-69
2022/11/23 02:00:45;;;;;;;13.43;7.50;;;8.40;99.90;;;;;;5014482;28;20501;-69
2022/11/23 02:03:12;;;;;;;15.38;8.98;;;8.40;99.90;;;;;;5015078;28;20505;-69
2022/11/23 02:05:43;;;;;;;11.45;7.88;;;8.40;99.90;;;;;;5016294;28;20497;-69
2022/11/23 02:08:10;;;;;;;14.20;7.82;;;8.40;99.90;;;;;;5015548;28;20050;-69
2022/11/23 02:10:36;;;;;;;11.15;8.10;;;8.40;99.90;;;;;;5015602;28;20527;-69
2022/11/23 02:13:09;;;;;;;13.07;8.38;;;8.40;99.90;;;;;;5016258;28;20117;-69
2022/11/23 02:15:36;;;;;;;12.40;8.15;;;8.40;99.90;;;;;;5016162;28;20038;-69
2022/11/23 02:18:05;;;;;;;14.50;8.55;;;8.30;99.90;;;;;;5015626;28;20081;-69
2022/11/23 02:20:31;;;;;;;13.05;8.48;;;8.30;99.90;;;;;;5013124;28;20418;-69
2022/11/23 02:23:02;;;;;;;12.40;8.90;;;8.30;99.90;;;;;;5014817;28;20057;-69
2022/11/23 02:25:57;;;;;;;14.15;8.07;;;8.30;99.90;;;;;;4998367;28;20124;-69
2022/11/23 02:28:27;;;;;;;11.68;8.45;;;8.30;99.90;;;;;;5014954;28;20081;-69
2022/11/23 02:30:54;;;;;;;12.85;8.93;;;8.30;99.90;;;;;;5015493;28;20026;-70
2022/11/23 02:33:20;;;;;;;12.27;8.20;;;8.30;99.90;;;;;;5015871;28;20040;-69
2022/11/23 02:35:51;;;;;;;12.13;8.52;;;8.30;99.90;;;;;;5015814;28;20117;-69
2022/11/23 02:38:18;;;;;;;12.98;8.00;;;8.30;99.90;;;;;;4996156;28;20414;-69
2022/11/23 02:40:44;;;;;;;10.43;7.78;;;8.40;99.90;;;;;;5001249;28;20084;-69
2022/11/23 02:43:10;;;;;;;14.30;7.90;;;8.30;99.90;;;;;;5015668;28;20038;-69
2022/11/23 02:45:52;;;;;;;13.27;8.43;;;8.40;99.90;;;;;;5015753;28;20041;-69
2022/11/23 02:48:18;;;;;;;10.90;7.45;;;8.40;99.90;;;;;;5015494;28;20441;-69
2022/11/23 02:50:44;;;;;;;13.45;7.57;;;8.40;99.90;;;;;;5014693;28;20057;-69
2022/11/23 02:53:10;;;;;;;10.60;6.93;;;8.40;99.90;;;;;;5014672;28;20041;-69
2022/11/23 02:55:35;;;;;;;11.40;7.22;;;8.40;99.90;;;;;;5015513;28;20045;-69
2022/11/23 02:58:03;;;;;;;11.07;7.13;;;8.40;99.90;;;;;;5015443;28;20069;-69
2022/11/23 03:00:29;;;;;;;12.32;6.65;;;8.30;99.90;;;;;;5013765;28;20124;-69
2022/11/23 03:02:54;;;;;;;10.30;6.80;;;8.40;99.90;;;;;;5015151;28;20543;-69
2022/11/23 03:05:21;;;;;;;11.07;6.85;;;8.40;99.90;;;;;;5015269;28;20498;-69
2022/11/23 03:07:46;;;;;;;11.82;7.18;;;8.40;99.90;;;;;;5014310;28;20049;-69
2022/11/23 03:10:12;;;;;;;10.98;7.03;;;8.40;99.90;;;;;;5013472;28;20137;-69
2022/11/23 03:12:38;;;;;;;11.43;6.70;;;8.40;99.90;;;;;;5014829;28;20034;-69
2022/11/23 03:15:04;;;;;;;10.98;7.53;;;8.40;99.90;;;;;;4994990;28;20513;-69
2022/11/23 03:17:29;;;;;;;10.95;7.55;;;8.40;99.90;;;;;;4998444;28;20038;-69
2022/11/23 03:19:55;;;;;;;12.80;7.50;;;8.40;99.90;;;;;;5011126;28;20119;-69
2022/11/23 03:22:21;;;;;;;11.18;7.53;;;8.40;99.90;;;;;;5008391;28;20491;-69
2022/11/23 03:24:46;;;;;;;11.20;8.15;;;8.40;99.90;;;;;;5005939;28;20037;-69
2022/11/23 03:27:12;;;;;;;14.63;8.93;;;8.40;99.90;;;;;;4999244;28;20117;-69
2022/11/23 03:29:37;;;;;;;13.00;8.40;;;8.40;99.90;;;;;;5012834;28;20041;-69
2022/11/23 03:32:03;;;;;;;12.07;7.38;;;8.30;99.90;;;;;;5008538;28;20491;-69
2022/11/23 03:34:28;;;;;;;11.23;8.00;;;8.40;99.90;;;;;;5010198;28;20107;-69
2022/11/23 03:36:54;;;;;;;12.85;8.38;;;8.40;99.90;;;;;;5013539;28;20414;-69
2022/11/23 03:39:19;;;;;;;14.52;8.65;;;8.30;99.90;;;;;;5011165;28;20065;-69
2022/11/23 03:41:45;;;;;;;14.00;9.25;;;8.30;99.90;;;;;;5010554;28;20083;-69
2022/11/23 03:44:11;;;;;;;16.55;9.20;;;8.30;99.90;;;;;;5009219;28;20043;-69
2022/11/23 03:46:37;;;;;;;12.95;8.93;;;8.30;99.90;;;;;;4994718;28;20049;-69
2022/11/23 03:49:03;;;;;;;14.65;9.15;;;8.40;99.90;;;;;;4994642;28;20125;-69
2022/11/23 03:51:28;;;;;;;16.17;9.35;;;8.40;99.90;;;;;;4993488;28;20045;-69
2022/11/23 03:53:54;;;;;;;16.65;9.32;;;8.40;99.90;;;;;;4994729;28;20041;-69
2022/11/23 03:56:19;;;;;;;14.52;8.77;;;8.40;99.90;;;;;;4993680;28;20045;-69
2022/11/23 03:58:45;;;;;;;16.83;9.20;;;8.40;99.90;;;;;;4996166;28;20038;-69
2022/11/23 04:01:10;;;;;;;15.80;9.68;;;8.40;99.90;;;;;;5008975;28;20042;-69
2022/11/23 04:03:36;;;;;;;13.20;9.15;;;8.30;99.90;;;;;;4994376;28;20058;-70
2022/11/23 04:06:02;;;;;;;14.57;9.38;;;8.40;99.90;;;;;;4993280;28;20140;-69
2022/11/23 04:08:27;;;;;;;15.50;9.35;;;8.40;99.90;;;;;;5012798;28;20038;-69
2022/11/23 04:10:57;;;;;;;15.80;10.30;;;8.40;99.90;;;;;;5012843;28;20041;-70
2022/11/23 04:13:25;;;;;;;19.67;10.45;;;8.40;99.90;;;;;;5013591;28;20046;-70
2022/11/23 04:15:50;;;;;;;18.55;10.35;;;8.40;99.90;;;;;;5010690;28;20037;-69
2022/11/23 04:18:16;;;;;;;17.23;10.65;;;8.40;99.90;;;;;;4994827;28;20564;-69
2022/11/23 04:20:42;;;;;;;17.40;10.27;;;8.30;99.90;;;;;;5013712;28;20044;-70
2022/11/23 04:23:07;;;;;;;15.55;9.85;;;8.40;99.90;;;;;;5013868;28;20050;-69
2022/11/23 04:25:33;;;;;;;17.98;11.38;;;8.40;99.90;;;;;;5010633;28;20041;-69
2022/11/23 04:27:59;;;;;;;17.90;11.30;;;8.40;99.90;;;;;;5011147;28;20038;-69
2022/11/23 04:30:24;;;;;;;15.95;10.10;;;8.40;99.90;;;;;;5011769;28;20038;-70
2022/11/23 04:32:50;;;;;;;16.02;11.10;;;8.40;99.90;;;;;;5012319;28;20034;-69
2022/11/23 04:35:16;;;;;;;17.80;10.95;;;8.40;99.90;;;;;;4993182;28;20626;-69
2022/11/23 04:37:41;;;;;;;18.42;11.45;;;8.40;99.90;;;;;;5007862;28;20034;-69
2022/11/23 04:40:07;;;;;;;17.48;10.80;;;8.30;99.90;;;;;;5013577;28;20045;-70
2022/11/23 04:42:33;;;;;;;20.20;12.27;;;8.40;99.90;;;;;;4995886;28;20034;-70
2022/11/23 04:44:59;;;;;;;17.70;12.15;;;8.40;99.90;;;;;;5013699;28;20037;-69
2022/11/23 04:47:24;;;;;;;18.83;12.40;;;8.40;99.90;;;;;;5012191;28;20498;-69
2022/11/23 04:49:50;;;;;;;21.42;12.25;;;8.30;99.90;;;;;;5013420;28;20401;-69
2022/11/23 04:52:16;;;;;;;21.38;12.98;;;8.30;99.90;;;;;;5013355;28;20113;-69
2022/11/23 04:54:42;;;;;;;19.52;12.77;;;8.30;99.90;;;;;;5013649;28;20030;-69
2022/11/23 04:57:08;;;;;;;19.77;12.27;;;8.30;99.90;;;;;;5013507;28;20402;-69
2022/11/23 04:59:33;;;;;;;19.92;12.05;;;8.40;99.90;;;;;;5013365;28;20541;-69
2022/11/23 05:01:59;;;;;;;20.30;12.50;;;8.40;99.90;;;;;;5012498;28;20029;-70
2022/11/23 05:04:25;;;;;;;21.83;13.05;;;8.40;99.90;;;;;;5012376;28;20054;-69
2022/11/23 05:06:50;;;;;;;20.83;12.77;;;8.50;99.90;;;;;;5011190;28;20080;-69
2022/11/23 05:09:16;;;;;;;20.20;12.95;;;8.50;99.90;;;;;;5013369;28;20045;-69
2022/11/23 05:11:42;;;;;;;21.02;13.48;;;8.60;99.90;;;;;;5012614;28;20486;-69
2022/11/23 05:14:07;;;;;;;19.13;12.57;;;8.50;99.90;;;;;;5012151;28;20034;-70
2022/11/23 05:16:34;;;;;;;21.45;12.40;;;8.50;99.90;;;;;;4999646;28;20038;-69
2022/11/23 05:18:59;;;;;;;19.90;12.85;;;8.50;99.90;;;;;;5011812;28;20144;-69
2022/11/23 05:21:25;;;;;;;21.25;13.00;;;8.40;99.90;;;;;;5013339;28;20160;-70
2022/11/23 05:23:51;;;;;;;20.63;13.02;;;8.50;99.90;;;;;;4999021;28;20496;-69
2022/11/23 05:26:16;;;;;;;21.75;13.15;;;8.40;99.90;;;;;;5009443;28;20042;-69
2022/11/23 05:28:42;;;;;;;21.65;13.57;;;8.40;99.90;;;;;;5014862;28;20157;-70
2022/11/23 05:31:08;;;;;;;22.08;13.90;;;8.40;99.90;;;;;;5015268;28;20038;-70
2022/11/23 05:33:34;;;;;;;21.38;12.82;;;8.40;99.90;;;;;;5015996;28;20038;-70
2022/11/23 05:35:59;;;;;;;21.73;13.95;;;8.40;99.90;;;;;;5015471;28;20096;-70
2022/11/23 05:38:25;;;;;;;19.75;13.13;;;8.40;99.90;;;;;;5016304;28;20109;-69
2022/11/23 05:40:50;;;;;;;19.45;12.80;;;8.50;99.90;;;;;;5016130;28;20042;-69
2022/11/23 05:43:16;;;;;;;17.60;11.93;;;8.40;99.90;;;;;;4998680;28;20128;-70
2022/11/23 05:45:42;;;;;;;20.48;12.93;;;8.50;99.90;;;;;;5015546;28;20030;-69
2022/11/23 05:48:09;;;;;;;18.17;12.45;;;8.50;99.90;;;;;;4998160;28;20060;-70
2022/11/23 05:50:34;;;;;;;19.05;12.15;;;8.50;99.90;;;;;;5015944;28;20449;-69
2022/11/23 05:53:00;;;;;;;16.73;11.85;;;8.50;99.90;;;;;;4995299;28;20089;-69
2022/11/23 05:55:26;;;;;;;18.70;11.85;;;8.40;99.90;;;;;;5015684;28;20034;-69
2022/11/23 05:57:51;;;;;;;18.20;11.27;;;8.50;99.90;;;;;;5016458;28;20040;-69
2022/11/23 06:00:18;;;;;;;18.58;11.25;;;8.50;99.90;;;;;;5015878;28;20116;-69
2022/11/23 06:02:43;;;;;;;17.45;12.15;;;8.50;99.90;;;;;;5015290;28;20048;-70
2022/11/23 06:05:09;;;;;;;16.77;10.70;;;8.50;99.90;;;;;;5014603;28;20049;-70
2022/11/23 06:07:35;;;;;;;18.42;11.57;;;8.50;99.90;;;;;;4994340;28;20042;-69
2022/11/23 06:10:01;;;;;;;17.27;10.60;;;8.50;99.90;;;;;;4997612;28;20077;-69
2022/11/23 06:12:27;;;;;;;17.13;10.30;;;8.50;99.90;;;;;;5013278;28;20053;-70
2022/11/23 06:14:53;;;;;;;15.75;10.07;;;8.50;99.90;;;;;;5007804;28;20038;-70
2022/11/23 06:17:19;;;;;;;18.63;10.55;;;8.50;99.90;;;;;;5015137;28;20041;-69
2022/11/23 06:19:45;;;;;;;17.92;10.23;;;8.40;99.90;;;;;;4998425;28;20406;-70
2022/11/23 06:22:10;;;;;;;18.38;10.57;;;8.40;99.90;;;;;;5005394;28;20046;-69
2022/11/23 06:24:36;;;;;;;16.60;9.98;;;8.40;99.90;;;;;;5014656;28;20044;-69
2022/11/23 06:27:01;;;;;;;16.95;9.82;;;8.40;99.90;;;;;;5015062;28;20034;-70
2022/11/23 06:29:27;;;;;;;16.70;9.48;;;8.30;99.90;;;;;;5015868;28;20406;-70
2022/11/23 06:31:53;;;;;;;17.25;9.55;;;8.40;99.90;;;;;;5013922;28;20117;-70
2022/11/23 06:34:19;;;;;;;13.82;8.95;;;8.40;99.90;;;;;;5015048;28;20482;-70
2022/11/23 06:36:45;;;;;;;17.25;9.25;;;8.30;99.90;;;;;;5013706;28;20037;-69
2022/11/23 06:39:10;;;;;;;15.05;8.65;;;8.30;99.90;;;;;;5015130;28;20077;-69
2022/11/23 06:41:36;;;;;;;13.73;8.30;;;8.30;99.90;;;;;;5013907;28;20037;-69
2022/11/23 06:44:02;;;;;;;18.63;9.02;;;8.30;99.90;;;;;;5014865;28;20117;-70
2022/11/23 06:46:27;;;;;;;15.90;8.25;;;8.30;99.90;;;;;;5011860;28;20041;-69
2022/11/23 06:48:53;;;;;;;13.55;8.95;;;8.30;99.90;;;;;;5014557;28;20049;-69
2022/11/23 06:51:19;;;;;;;14.18;8.90;;;8.30;99.90;;;;;;5013067;28;20117;-69
2022/11/23 06:53:44;;;;;;;12.70;7.82;;;8.30;99.90;;;;;;5013792;28;20041;-69
2022/11/23 06:56:10;;;;;;;14.93;8.63;;;8.30;99.90;;;;;;5014478;28;20034;-69
2022/11/23 06:58:36;;;;;;;13.45;7.93;;;8.30;99.90;;;;;;5015144;28;20081;-69
2022/11/23 07:01:04;;;;;;;16.75;8.30;;;8.20;99.90;;;;;;5013346;28;20050;-70
2022/11/23 07:03:30;;;;;;;14.50;8.25;;;8.30;99.90;;;;;;5013862;28;20050;-69
2022/11/23 07:05:56;;;;;;;15.18;7.65;;;8.40;99.90;;;;;;5015260;28;20168;-70
2022/11/23 07:08:22;;;;;;;15.00;7.25;;;8.30;99.90;;;;;;5015274;28;20121;-69
2022/11/23 07:10:48;;;;;;;14.10;6.82;;;8.30;99.90;;;;;;4997335;28;20038;-70
2022/11/23 07:13:14;;;;;;;11.02;5.95;;;8.30;99.90;;;;;;5014932;28;20041;-69
2022/11/23 07:15:41;;;;;;;14.35;6.60;;;8.40;99.90;;;;;;5015014;28;20038;-69
2022/11/23 07:18:08;;;;;;;12.73;6.53;;;8.40;99.90;;;;;;5014297;28;20049;-69
2022/11/23 07:20:34;;;;;;;13.85;6.18;;;8.30;99.90;;;;;;5015179;28;20168;-69
2022/11/23 07:23:06;;;;;;;13.00;5.85;;;8.30;99.90;;;;;;5014251;28;20042;-69
2022/11/23 07:25:34;;;;;;;11.82;5.28;;;8.30;99.90;;;;;;5013774;28;20127;-69
2022/11/23 07:28:01;;;;;;;14.57;5.95;;;8.40;99.90;;;;;;5013462;28;20483;-69
2022/11/23 07:30:28;;;;;;;13.27;5.25;;;8.50;99.90;;;;;;5012547;28;20232;-69
2022/11/23 07:32:58;;;;;;;11.38;5.22;;;8.50;99.90;;;;;;5013469;28;20042;-69
2022/11/23 07:35:24;;;;;;;13.73;4.70;;;8.40;99.90;;;;;;5014888;28;20045;-69
2022/11/23 07:37:50;;;;;;;12.82;4.82;;;8.40;99.90;;;;;;5013935;28;20041;-69
2022/11/23 07:40:15;;;;;;;10.77;4.95;;;8.40;99.90;;;;;;5013026;28;20044;-70
2022/11/23 07:42:41;;;;;;;13.00;4.85;;;8.40;99.90;;;;;;5014384;28;20487;-69
2022/11/23 07:45:08;;;;;;;9.95;4.50;;;8.30;99.90;;;;;;5013956;28;20061;-69
2022/11/23 07:47:33;;;;;;;10.30;4.32;;;8.40;99.90;;;;;;5013766;28;20092;-69
2022/11/23 07:49:59;;;;;;;14.13;4.43;;;8.40;99.90;;;;;;5012316;28;20057;-71
2022/11/23 07:52:25;;;;;;;11.13;4.85;;;8.40;99.90;;;;;;5013620;28;20109;-71
2022/11/23 07:54:50;;;;;;;12.35;4.78;;;8.30;99.90;;;;;;5012397;28;20149;-69
2022/11/23 07:57:16;;;;;;;10.35;4.47;;;8.40;99.90;;;;;;5014173;28;20037;-69
2022/11/23 07:59:42;;;;;;;11.68;5.10;;;8.30;99.90;;;;;;5012966;28;20038;-69
2022/11/23 08:02:11;;;;;;;10.70;4.05;;;8.40;99.90;;;;;;5013106;28;20069;-69
2022/11/23 08:04:37;;;;;;;14.45;5.40;;;8.40;99.90;;;;;;5014147;28;20057;-69
2022/11/23 08:07:02;;;;;;;11.07;4.63;;;8.40;99.90;;;;;;5012823;28;20475;-69
2022/11/23 08:09:28;;;;;;;12.95;4.40;;;8.40;99.90;;;;;;5014132;28;20093;-69
2022/11/23 08:11:54;;;;;;;11.43;3.92;;;8.40;99.90;;;;;;5012758;28;20042;-69
2022/11/23 08:14:19;;;;;;;10.90;4.15;;;8.40;99.90;;;;;;5014044;28;20041;-69
2022/11/23 08:16:49;;;;;;;13.38;4.95;;;8.40;99.90;;;;;;5013968;28;20135;-69
2022/11/23 08:19:14;;;;;;;10.57;4.45;;;8.30;99.90;;;;;;5014132;28;20156;-69
2022/11/23 08:21:40;;;;;;;11.35;4.60;;;8.40;99.90;;;;;;5012618;28;20124;-69
2022/11/23 08:24:06;;;;;;;13.25;4.57;;;8.30;99.90;;;;;;5013906;28;20045;-69
2022/11/23 08:26:34;;;;;;;10.93;4.57;;;8.40;99.90;;;;;;5013872;28;20049;-70
2022/11/23 08:29:00;;;;;;;10.93;4.28;;;8.30;99.90;;;;;;5013792;28;20038;-69
2022/11/23 08:31:25;;;;;;;11.55;3.88;;;8.50;99.90;;;;;;5012795;28;20041;-69
2022/11/23 08:33:51;;;;;;;10.55;4.00;;;8.40;99.90;;;;;;5013736;28;20128;-68
2022/11/23 08:36:17;;;;;;;10.93;4.32;;;8.50;99.90;;;;;;5013713;28;20056;-69
2022/11/23 08:38:42;;;;;;;11.07;3.72;;;8.50;99.90;;;;;;5013626;28;20418;-69
2022/11/23 08:41:08;;;;;;;10.90;3.60;;;8.50;99.90;;;;;;5012464;28;20046;-69
2022/11/23 08:43:34;;;;;;;12.05;3.45;;;8.40;99.90;;;;;;5013695;28;20505;-69
2022/11/23 08:46:01;;;;;;;14.38;4.25;;;8.60;99.90;;;;;;5013711;28;20088;-69
2022/11/23 08:48:27;;;;;;;12.88;4.50;;;8.50;99.90;;;;;;5013612;28;20050;-69
2022/11/23 08:50:53;;;;;;;11.38;4.65;;;8.40;99.90;;;;;;5013565;28;20034;-69
2022/11/23 08:53:19;;;;;;;10.35;4.30;;;8.40;99.90;;;;;;4995815;28;20049;-69
2022/11/23 08:55:45;;;;;;;10.48;4.65;;;8.40;99.90;;;;;;5012240;28;20042;-69
2022/11/23 08:58:11;;;;;;;10.85;4.10;;;8.50;99.90;;;;;;5013282;28;20053;-69
2022/11/23 09:00:36;;;;;;;15.45;5.47;;;8.50;99.90;;;;;;4995987;28;20410;-69
2022/11/23 09:03:02;;;;;;;15.95;4.63;;;8.60;99.90;;;;;;5013180;28;20058;-69
2022/11/23 09:05:28;;;;;;;14.23;4.70;;;8.70;99.90;;;;;;5013441;28;20046;-69
2022/11/23 09:07:57;;;;;;;10.30;4.20;;;8.70;99.90;;;;;;5013160;28;20483;-69
2022/11/23 09:10:23;;;;;;;11.05;4.32;;;8.80;99.90;;;;;;5028368;28;20042;-69
2022/11/23 09:12:49;;;;;;;11.55;3.65;;;8.80;99.90;;;;;;5013240;28;20038;-69
2022/11/23 09:15:14;;;;;;;16.38;4.80;;;8.80;99.90;;;;;;5012159;28;20040;-69
2022/11/23 09:17:40;;;;;;;18.42;4.13;;;8.80;99.90;;;;;;5013303;28;20581;-69
2022/11/23 09:20:06;;;;;;;14.93;4.57;;;8.70;99.90;;;;;;5013227;28;20100;-69
2022/11/23 09:22:32;;;;;;;12.20;4.32;;;8.70;99.90;;;;;;5013295;28;20092;-69
2022/11/23 09:24:57;;;;;;;11.90;4.60;;;8.70;99.90;;;;;;5012262;28;20046;-69
2022/11/23 09:27:23;;;;;;;12.70;4.20;;;8.80;99.90;;;;;;5013308;28;20045;-69
2022/11/23 09:29:49;;;;;;;14.90;4.13;;;8.80;99.90;;;;;;5013324;28;20074;-69
2022/11/23 09:32:14;;;;;;;11.07;4.15;;;8.80;99.90;;;;;;5011777;28;20125;-69
2022/11/23 09:34:40;;;;;;;13.85;4.50;;;8.90;99.90;;;;;;5013093;28;20037;-69
2022/11/23 09:37:06;;;;;;;12.70;3.80;;;8.80;99.90;;;;;;5013093;28;20092;-69
2022/11/23 09:39:31;;;;;;;9.85;4.13;;;8.80;99.90;;;;;;5013303;28;20042;-69
2022/11/23 09:42:17;;;;;;;11.20;4.68;;;8.90;99.90;;;;;;5013238;28;20042;-70
2022/11/23 09:45:10;;;;;;;11.45;3.92;;;8.90;99.90;;;;;;5013049;28;20041;-69
2022/11/23 09:48:01;;;;;;;13.82;4.40;;;8.90;99.90;;;;;;5012925;28;20050;-69
2022/11/23 09:50:48;;;;;;;14.48;4.20;;;8.90;99.90;;;;;;5013076;28;20136;-69
2022/11/23 09:53:21;;;;;;;13.00;4.20;;;8.80;99.90;;;;;;5012944;28;20065;-69
2022/11/23 09:55:50;;;;;;;13.73;4.22;;;8.80;99.90;;;;;;5012917;28;20053;-69
2022/11/23 09:58:18;;;;;;;15.60;4.43;;;8.90;99.90;;;;;;5012831;28;20061;-69
2022/11/23 10:00:54;;;;;;;14.07;3.97;;;8.90;99.90;;;;;;5013082;28;20034;-69
2022/11/23 10:03:20;;;;;;;13.32;4.05;;;8.90;99.90;;;;;;5012607;28;20058;-70
2022/11/23 10:06:11;;;;;;;10.65;3.50;;;8.90;99.90;;;;;;5012853;28;20055;-69
2022/11/23 10:08:56;;;;;;;13.35;3.83;;;8.90;99.90;;;;;;4995200;28;20131;-69
2022/11/23 10:11:39;;;;;;;13.15;3.08;;;9.00;99.90;;;;;;5015498;28;20398;-69
2022/11/23 10:14:43;;;;;;;12.38;4.30;;;9.00;99.90;;;;;;5014945;28;20042;-69
2022/11/23 10:17:20;;;;;;;12.93;3.60;;;9.10;99.90;;;;;;5016418;28;20121;-69
2022/11/23 10:19:51;;;;;;;10.55;3.42;;;9.10;99.90;;;;;;5014997;28;20033;-69
2022/11/23 10:22:29;;;;;;;14.00;3.83;;;9.00;99.90;;;;;;4998560;28;20049;-69
2022/11/23 10:24:54;;;;;;;13.15;3.70;;;9.10;99.90;;;;;;4998448;28;20078;-69
2022/11/23 10:27:22;;;;;;;11.20;3.40;;;9.10;99.90;;;;;;5015896;28;20100;-69
2022/11/23 10:29:48;;;;;;;16.05;4.68;;;9.10;99.90;;;;;;5016226;28;20042;-69
2022/11/23 10:32:31;;;;;;;13.07;3.78;;;9.10;99.90;;;;;;5016025;28;20080;-69
2022/11/23 10:34:59;;;;;;;;;;;9.10;99.90;;;;;;5016302;28;20093;-69
2022/11/23 10:37:25;;;;;;;10.05;3.90;;;9.20;99.90;;;;;;5015823;28;19917;-69
2022/11/23 10:39:50;;;;;;;13.02;3.15;;;9.10;99.90;;;;;;5015798;28;20061;-69
2022/11/23 10:42:34;;;;;;;10.88;2.58;;;9.10;99.90;;;;;;5015832;28;20042;-69
2022/11/23 10:45:00;;;;;;;10.15;2.45;;;9.10;99.90;;;;;;5015676;28;20128;-69
2022/11/23 10:47:36;;;;;;;11.15;2.55;;;9.20;99.90;;;;;;5014318;28;20048;-69
2022/11/23 10:50:02;;;;;;;10.07;3.05;;;9.30;99.90;;;;;;5015567;28;20034;-69
2022/11/23 10:52:31;;;;;;;13.15;2.70;;;9.20;99.90;;;;;;5015477;28;20048;-69
2022/11/23 10:54:59;;;;;;;10.50;2.90;;;9.20;99.90;;;;;;4997847;28;20049;-69
2022/11/23 10:57:33;;;;;;;9.73;2.47;;;9.20;99.90;;;;;;5015417;28;20514;-69
2022/11/23 11:00:08;;;;;;;9.77;2.55;;;9.10;99.90;;;;;;5015411;28;20030;-69
2022/11/23 11:02:43;;;;;;;15.23;3.10;;;9.20;99.90;;;;;;5015377;28;20113;-69
2022/11/23 11:05:29;;;;;;;9.95;2.53;;;9.20;99.90;;;;;;5015334;28;20073;-69
2022/11/23 11:07:57;;;;;;;12.18;2.60;;;9.20;99.90;;;;;;5015367;28;20038;-69
2022/11/23 11:10:37;;;;;;;10.85;2.30;;;9.10;99.90;;;;;;5015337;28;20394;-69
2022/11/23 11:13:20;;;;;;;10.07;2.53;;;9.20;99.90;;;;;;5013959;28;20041;-69
2022/11/23 11:16:03;;;;;;;12.65;2.20;;;9.10;99.90;;;;;;5015320;28;20048;-69
2022/11/23 11:18:35;;;;;;;16.25;3.60;;;9.10;99.90;;;;;;5015126;28;20045;-69
2022/11/23 11:21:22;;;;;;;11.40;2.30;;;9.10;99.90;;;;;;5013505;28;20053;-83
2022/11/23 11:23:54;;;;;;;13.32;2.83;;;9.20;99.90;;;;;;5011453;28;20332;-83
2022/11/23 11:26:25;;;;;;;14.93;3.50;;;9.20;99.90;;;;;;5013085;28;20435;-69
2022/11/23 11:29:03;;;;;;;11.88;3.10;;;9.20;99.90;;;;;;5030416;28;20077;-69
2022/11/23 11:31:56;;;;;;;11.85;2.65;;;9.20;99.90;;;;;;5020489;28;20576;-70
2022/11/23 11:34:34;;;;;;;15.70;3.03;;;9.30;99.90;;;;;;5011971;28;20053;-69
2022/11/23 11:37:39;;;;;;;9.15;2.50;;;9.50;99.90;;;;;;5013552;28;20053;-70
2022/11/23 11:40:35;;;;;;;8.80;2.45;;;9.70;99.90;;;;;;5013713;28;20121;-69
2022/11/23 11:43:33;;;;;;;10.20;2.33;;;9.70;99.90;;;;;;4994954;28;20030;-69
2022/11/23 11:46:03;;;;;;;13.88;3.10;;;9.60;99.90;;;;;;5013144;28;20038;-70
2022/11/23 11:48:44;;;;;;;11.95;2.67;;;9.60;99.90;;;;;;5014292;28;20513;-69
2022/11/23 11:51:19;;;;;;;6.07;1.50;;;9.70;99.90;;;;;;5013650;28;20494;-69
2022/11/23 11:54:12;;;;;;;12.05;2.78;;;9.80;99.90;;;;;;5014614;28;20037;-69
2022/11/23 11:56:48;;;;;;;14.25;3.20;;;9.70;99.90;;;;;;5012578;28;20430;-69
2022/11/23 11:59:34;;;;;;;10.98;2.22;;;9.70;99.90;;;;;;4996532;28;20050;-69
2022/11/23 12:02:25;;;;;;;9.40;2.05;;;9.70;99.90;;;;;;5014321;28;20073;-69
2022/11/23 12:05:14;;;;;;;8.82;2.20;;;9.70;99.90;;;;;;5013278;28;20057;-69
2022/11/23 12:07:47;;;;;;;12.32;2.70;;;9.90;99.90;;;;;;5012112;28;20092;-69
2022/11/23 12:10:39;;;;;;;8.77;2.20;;;9.90;99.90;;;;;;5009580;28;20042;-69
2022/11/23 12:13:10;;;;;;;11.77;3.03;;;9.80;99.90;;;;;;4996949;28;20107;-69
2022/11/23 12:15:45;;;;;;;16.88;3.95;;;9.90;99.90;;;;;;4994329;28;20041;-69
2022/11/23 12:18:16;;;;;;;12.52;2.40;;;10.00;99.90;;;;;;5013290;28;20065;-69
2022/11/23 12:21:22;;;;;;;15.53;2.40;;;10.00;99.90;;;;;;5011565;28;20037;-70
2022/11/23 12:23:51;;;;;;;8.65;1.95;;;10.00;99.90;;;;;;4996980;28;20055;-69
2022/11/23 12:26:53;;;;;;;13.73;2.30;;;10.10;99.90;;;;;;5010841;28;20486;-69
2022/11/23 12:29:33;;;;;;;10.27;2.20;;;10.10;99.90;;;;;;5012786;28;20049;-69
2022/11/23 12:32:11;;;;;;;8.70;2.10;;;10.00;99.90;;;;;;5013879;28;20038;-69
2022/11/23 12:35:09;;;;;;;12.32;2.25;;;10.10;99.90;;;;;;5012394;28;20034;-70
2022/11/23 12:37:38;;;;;;;8.10;1.75;;;10.10;99.90;;;;;;5012076;28;20065;-70
2022/11/23 12:40:28;;;;;;;8.15;1.50;;;10.10;99.90;;;;;;4993587;28;20046;-69
2022/11/23 12:43:04;;;;;;;10.27;1.90;;;10.10;99.90;;;;;;5009049;28;20116;-69
2022/11/23 12:45:55;;;;;;;9.05;1.75;;;10.10;99.90;;;;;;5013470;28;20521;-69
2022/11/23 12:48:45;;;;;;;9.45;1.92;;;10.10;99.90;;;;;;4997788;28;20043;-69
2022/11/23 12:51:24;;;;;;;8.55;1.67;;;10.00;99.90;;;;;;5003515;28;20042;-69
2022/11/23 12:54:14;;;;;;;9.60;1.75;;;10.10;99.90;;;;;;4994099;28;20049;-70
2022/11/23 12:56:57;;;;;;;7.55;1.52;;;10.10;99.90;;;;;;5007171;28;20043;-70
2022/11/23 12:59:25;;;;;;;9.30;1.90;;;10.10;99.90;;;;;;5007143;28;20391;-69